Flight Track Log - Related Links

Times and Time Zones

All times are in EDT time to prevent confusion due to time zone crossing. See the GLA31B flight status page for this flight to view local times or setup timezone preferences in your user account.

Time Position Orientation Groundspeed Altitude Reporting Facility
EDT Latitude Longitude Course Direction KTS MPH feet Rate Location/Type
Sun 10:08:05 AM 41.8411 -103.6208 181° South 187 215 7,800  Level Denver Center
Sun 10:09:00 AM 41.4597 -103.6000 180° South  Level FlightAware Approximate
Sun 10:09:06 AM 41.8000 -103.5875 149° Southeast 179 206 9,700  Level Denver Center
Sun 10:10:00 AM 41.3918 -103.6000 180° South  Level FlightAware Approximate
Sun 10:10:08 AM 41.7425 -103.5531 156° South 197 227 11,800  Level Denver Center
Sun 10:11:00 AM 41.3239 -103.6022 184° South  Level FlightAware Approximate
Sun 10:11:09 AM 41.6881 -103.5333 165° South 208 239 13,400  Level Denver Center
Sun 10:12:00 AM 41.2560 -103.6078 184° South  Level FlightAware Approximate
Sun 10:12:10 AM 41.6303 -103.5128 165° South 218 251 14,900  Level Denver Center
Sun 10:13:11 AM 41.5592 -103.5075 177° South 225 259 16,200 639 Climbing Denver Center
Sun 10:14:12 AM 41.4933 -103.5194 188° South 239 275 16,200 -49 Level Denver Center
Sun 10:15:13 AM 41.4142 -103.5347 188° South 253 291 16,100 -49 Descending Denver Center
Sun 10:16:15 AM 41.3469 -103.5506 190° South 257 296 16,100  Level Denver Center
Sun 10:17:16 AM 41.2786 -103.5653 189° South 257 296 16,100  Level Denver Center
Sun 10:18:17 AM 41.1986 -103.5764 186° South 259 298 16,100 -49 Level Denver Center
Sun 10:19:18 AM 41.1308 -103.5908 189° South 257 296 16,000  Descending Denver Center
Sun 10:20:20 AM 41.0633 -103.6083 191° South 259 298 16,100 49 Climbing Denver Center
Sun 10:21:21 AM 40.9839 -103.6175 185° South 257 296 16,100  Level Denver Center
Sun 10:22:22 AM 40.9272 -103.6200 182° South 255 293 16,100  Level Denver Center
Sun 10:23:24 AM 40.8353 -103.6244 182° South 259 298 16,100 -293 Level Denver Center
Sun 10:24:25 AM 40.7719 -103.6733 210° Southwest 274 315 15,500 -639 Descending Denver Center
Sun 10:25:26 AM 40.7078 -103.7225 210° Southwest 274 315 14,800 -829 Descending Denver Center
Sun 10:26:28 AM 40.6322 -103.7786 209° Southwest 277 319 13,800 -829 Descending Denver Center
Sun 10:27:29 AM 40.5672 -103.8264 209° Southwest 279 321 13,100 -344 Descending Denver Center
Sun 10:28:30 AM 40.4917 -103.8814 209° Southwest 278 320 13,100  Level Denver Center
Sun 10:29:32 AM 40.4275 -103.9222 206° Southwest 271 312 13,100  Level Denver Center
Sun 10:30:33 AM 40.3672 -103.9769 215° Southwest 265 305 13,100 -49 Level Denver Center
Sun 10:31:34 AM 40.3131 -104.0403 222° Southwest 262 302 13,000 -683 Descending Denver Center
Sun 10:32:36 AM 40.3031 -104.1381 262° West 252 290 11,700 -878 Descending Denver Center
Sun 10:33:37 AM 40.2947 -104.2278 263° West 251 289 11,200 -341 Descending Denver Center
Sun 10:34:39 AM 40.2639 -104.3075 243° Southwest 246 283 11,000 -133 Descending Denver Center
Sun 10:35:52 AM 40.2358 -104.3889 246° West 246 283 10,900 -711 Descending Denver Center
Sun 10:36:54 AM 40.1969 -104.4839 242° Southwest 243 280 9,400 -927 Descending Denver Center
Sun 10:37:55 AM 40.1547 -104.5608 234° Southwest 243 280 9,000 -197 Descending Denver Center
Sun 10:38:56 AM 40.0992 -104.6047 211° Southwest 237 273 9,000 -439 Level Denver Center
Sun 10:39:58 AM 40.0417 -104.6403 205° Southwest 230 265 8,100 -829 Descending Denver Center
Sun 10:40:59 AM 39.9839 -104.6775 206° Southwest 219 252 7,300 -927 Descending Denver Center
Sun 10:42:01 AM 39.9378 -104.6864 188° South 170 196 6,200 -927 Descending Denver Center
Sun 10:43:02 AM 39.8956 -104.6867 180° South 156 180 5,400 -787 Descending Denver Center
Sun 10:45:00 AM 39.8617 -104.6732 229° Southwest  Level Estimated
Sun 10:52:00 AM 39.8617 -104.6732 229° Southwest  Level Estimated
Sun 10:53:00 AM 39.8617 -104.6732 229° Southwest  Level Estimated

Login

Don't have an account? Register now (free) for customized features, flight alerts, and more!